createdAt,value
2022-12-25T00:01:48.342Z,6.39
2022-12-25T00:04:15.146Z,6.42
2022-12-25T00:06:42.133Z,6.47
2022-12-25T00:09:09.104Z,6.52
2022-12-25T00:11:35.932Z,6.54
2022-12-25T00:14:02.895Z,6.54
2022-12-25T00:16:29.771Z,6.49
2022-12-25T00:18:58.887Z,6.42
2022-12-25T00:21:25.657Z,6.33
2022-12-25T00:23:55.949Z,6.25
2022-12-25T00:26:23.373Z,6.15
2022-12-25T00:28:53.967Z,6.07
2022-12-25T00:31:21.472Z,6.00
2022-12-25T00:33:50.235Z,5.90
2022-12-25T00:36:19.560Z,5.77
2022-12-25T00:38:47.116Z,5.65
2022-12-25T00:41:16.807Z,5.54
2022-12-25T00:43:44.014Z,5.50
2022-12-25T00:46:12.806Z,5.47
2022-12-25T00:48:40.253Z,5.41
2022-12-25T00:51:11.022Z,5.38
2022-12-25T00:53:37.776Z,5.37
2022-12-25T00:56:07.811Z,5.35
2022-12-25T00:58:35.665Z,5.33
2022-12-25T01:01:06.819Z,5.36
2022-12-25T01:03:33.575Z,5.40
2022-12-25T01:06:03.923Z,5.44
2022-12-25T01:08:33.908Z,5.51
2022-12-25T01:11:06.088Z,5.55
2022-12-25T01:13:36.623Z,5.59
2022-12-25T01:16:07.905Z,5.62
2022-12-25T01:18:35.186Z,5.68
2022-12-25T01:21:11.002Z,5.70
2022-12-25T01:23:38.480Z,5.73
2022-12-25T01:26:07.456Z,5.76
2022-12-25T01:28:34.864Z,5.78
2022-12-25T01:31:02.204Z,5.81
2022-12-25T01:33:29.261Z,5.85
2022-12-25T01:35:55.973Z,5.87
2022-12-25T01:38:22.812Z,5.88
2022-12-25T01:40:49.743Z,5.88
2022-12-25T01:43:33.250Z,5.89
2022-12-25T01:46:00.365Z,5.89
2022-12-25T01:48:32.799Z,5.92
2022-12-25T01:51:06.110Z,5.96
2022-12-25T01:53:33.650Z,6.01
2022-12-25T01:56:05.948Z,6.05
2022-12-25T01:58:32.976Z,6.08
2022-12-25T02:00:59.771Z,6.08
2022-12-25T02:03:26.697Z,6.06
2022-12-25T02:05:54.522Z,6.02
2022-12-25T02:08:23.320Z,6.00
2022-12-25T02:10:50.069Z,5.98
2022-12-25T02:13:19.970Z,5.98
2022-12-25T02:15:51.108Z,6.01
2022-12-25T02:18:38.042Z,6.04
2022-12-25T02:21:21.388Z,6.07
2022-12-25T02:24:03.142Z,6.09
2022-12-25T02:27:00.592Z,6.13
2022-12-25T02:29:56.019Z,6.11
2022-12-25T02:32:31.215Z,6.09
2022-12-25T02:35:03.631Z,6.05
2022-12-25T02:37:31.840Z,6.04
2022-12-25T02:40:21.676Z,6.07
2022-12-25T02:43:08.190Z,6.09
2022-12-25T02:45:52.105Z,6.08
2022-12-25T02:48:37.629Z,6.05
2022-12-25T02:51:23.450Z,6.04
2022-12-25T02:54:09.196Z,6.01
2022-12-25T02:56:53.531Z,6.00
2022-12-25T02:59:37.072Z,6.02
2022-12-25T03:02:22.538Z,6.02
2022-12-25T03:05:08.165Z,6.02
2022-12-25T03:07:39.588Z,5.98
2022-12-25T03:10:28.208Z,5.93
2022-12-25T03:12:56.123Z,5.92
2022-12-25T03:15:39.333Z,5.88
2022-12-25T03:18:11.780Z,5.83
2022-12-25T03:20:54.268Z,5.80
2022-12-25T03:23:40.187Z,5.74
2022-12-25T03:26:23.164Z,5.66
2022-12-25T03:28:50.058Z,5.61
2022-12-25T03:31:35.547Z,5.56
2022-12-25T03:34:36.623Z,5.54
2022-12-25T03:37:23.687Z,5.55
2022-12-25T03:39:57.532Z,5.55
2022-12-25T03:42:47.653Z,5.52
2022-12-25T03:45:42.335Z,5.48
2022-12-25T03:48:26.698Z,5.47
2022-12-25T03:51:16.536Z,5.48
2022-12-25T03:54:03.475Z,5.50
2022-12-25T03:56:47.287Z,5.57
2022-12-25T03:59:29.743Z,5.59
2022-12-25T04:02:11.982Z,5.58
2022-12-25T04:04:54.189Z,5.57
2022-12-25T04:07:36.727Z,5.56
2022-12-25T04:10:19.321Z,5.54
2022-12-25T04:13:01.581Z,5.57
2022-12-25T04:15:43.956Z,5.60
2022-12-25T04:18:26.346Z,5.62
2022-12-25T04:21:08.564Z,5.64
2022-12-25T04:23:50.783Z,5.62
2022-12-25T04:26:33.293Z,5.63
2022-12-25T04:29:15.427Z,5.65
2022-12-25T04:31:57.872Z,5.66
2022-12-25T04:34:40.133Z,5.70
2022-12-25T04:37:06.849Z,5.71
2022-12-25T04:39:33.603Z,5.70
2022-12-25T04:42:01.113Z,5.69
2022-12-25T04:44:27.849Z,5.67
2022-12-25T04:46:54.748Z,5.69
2022-12-25T04:49:21.520Z,5.68
2022-12-25T04:51:48.333Z,5.67
2022-12-25T04:54:15.115Z,5.70
2022-12-25T04:56:45.856Z,5.70
2022-12-25T04:59:13.208Z,5.70
2022-12-25T05:01:40.179Z,5.69
2022-12-25T05:04:07.440Z,5.68
2022-12-25T05:06:34.208Z,5.68
2022-12-25T05:09:00.932Z,5.70
2022-12-25T05:11:27.761Z,5.71
2022-12-25T05:13:54.635Z,5.69
2022-12-25T05:16:21.522Z,5.67
2022-12-25T05:18:50.971Z,5.67
2022-12-25T05:21:18.768Z,5.65
2022-12-25T05:23:49.783Z,5.62
2022-12-25T05:26:19.574Z,5.61
2022-12-25T05:28:47.072Z,5.60
2022-12-25T05:31:14.503Z,5.61
2022-12-25T05:33:41.265Z,5.62
2022-12-25T05:36:10.436Z,5.61
2022-12-25T05:38:37.623Z,5.62
2022-12-25T05:41:04.790Z,5.60
2022-12-25T05:43:31.819Z,5.54
2022-12-25T05:46:03.510Z,5.54
2022-12-25T05:48:30.269Z,5.53
2022-12-25T05:50:56.956Z,5.53
2022-12-25T05:53:23.838Z,5.54
2022-12-25T05:55:50.640Z,5.53
2022-12-25T05:58:17.349Z,5.51
2022-12-25T06:00:44.858Z,5.47
2022-12-25T06:03:11.683Z,5.41
2022-12-25T06:05:39.777Z,5.33
2022-12-25T06:08:06.595Z,5.27
2022-12-25T06:10:33.331Z,5.18
2022-12-25T06:13:00.845Z,5.11
2022-12-25T06:15:27.758Z,5.02
2022-12-25T06:17:54.521Z,4.91
2022-12-25T06:20:21.447Z,4.81
2022-12-25T06:22:48.159Z,4.72
2022-12-25T06:25:15.162Z,4.67
2022-12-25T06:27:41.913Z,4.60
2022-12-25T06:30:09.323Z,4.55
2022-12-25T06:32:36.189Z,4.52
2022-12-25T06:35:03.307Z,4.51
2022-12-25T06:37:31.615Z,4.50
2022-12-25T06:39:58.522Z,4.49
2022-12-25T06:42:25.838Z,4.44
2022-12-25T06:44:53.315Z,4.41
2022-12-25T06:47:20.020Z,4.38
2022-12-25T06:49:46.848Z,4.36
2022-12-25T06:52:13.563Z,4.37
2022-12-25T06:54:40.273Z,4.36
2022-12-25T06:57:07.055Z,4.33
2022-12-25T06:59:33.748Z,4.28
2022-12-25T07:02:00.717Z,4.27
2022-12-25T07:04:40.655Z,4.25
2022-12-25T07:07:09.645Z,4.24
2022-12-25T07:09:39.179Z,4.22
2022-12-25T07:12:17.415Z,4.18
2022-12-25T07:14:45.485Z,4.10
2022-12-25T07:17:12.245Z,3.92
2022-12-25T07:19:44.733Z,3.78
2022-12-25T07:22:12.290Z,3.72
2022-12-25T07:24:39.200Z,3.67
2022-12-25T07:27:06.593Z,3.64
2022-12-25T07:29:33.305Z,3.61
2022-12-25T07:32:00.245Z,3.58
2022-12-25T07:34:27.030Z,3.59
2022-12-25T07:36:55.135Z,3.71
2022-12-25T07:39:22.072Z,3.86
2022-12-25T07:41:48.782Z,4.03
2022-12-25T07:44:16.065Z,4.22
2022-12-25T07:46:43.094Z,4.42
2022-12-25T07:49:11.109Z,4.61
2022-12-25T07:51:38.225Z,4.79
2022-12-25T07:54:05.085Z,4.94
2022-12-25T07:56:31.889Z,5.10
2022-12-25T07:58:58.679Z,5.25
2022-12-25T08:01:27.170Z,5.43
2022-12-25T08:03:57.374Z,5.65
2022-12-25T08:06:29.806Z,5.84
2022-12-25T08:09:01.820Z,6.03
2022-12-25T08:11:29.344Z,6.20
2022-12-25T08:13:56.031Z,6.36
2022-12-25T08:16:22.941Z,6.50
2022-12-25T08:18:49.840Z,6.63
2022-12-25T08:21:16.619Z,6.76
2022-12-25T08:23:45.629Z,6.89
2022-12-25T08:26:15.965Z,7.02
2022-12-25T08:28:42.841Z,7.18
2022-12-25T08:31:27.772Z,7.37
2022-12-25T08:33:57.241Z,7.70
2022-12-25T08:36:24.493Z,8.06
2022-12-25T08:38:53.480Z,8.44
2022-12-25T08:41:23.299Z,8.92
2022-12-25T08:43:50.039Z,9.37
2022-12-25T08:46:16.793Z,9.80
2022-12-25T08:48:45.913Z,10.16
2022-12-25T08:51:16.229Z,10.62
2022-12-25T08:53:44.734Z,11.05
2022-12-25T08:56:11.804Z,11.33
2022-12-25T08:58:38.872Z,11.53
2022-12-25T09:01:06.535Z,11.67
2022-12-25T09:03:33.877Z,11.86
2022-12-25T09:06:04.072Z,12.11
2022-12-25T09:08:31.093Z,12.26
2022-12-25T09:11:03.131Z,12.44
2022-12-25T09:13:30.220Z,12.68
2022-12-25T09:15:56.961Z,12.93
2022-12-25T09:18:23.783Z,13.04
2022-12-25T09:21:03.317Z,13.07
2022-12-25T09:23:30.912Z,13.20
2022-12-25T09:25:59.980Z,13.41
2022-12-25T09:28:26.894Z,13.52
2022-12-25T09:30:54.215Z,13.51
2022-12-25T09:33:22.204Z,13.40
2022-12-25T09:35:58.326Z,13.36
2022-12-25T09:38:25.836Z,13.23
2022-12-25T09:41:02.955Z,13.04
2022-12-25T09:43:33.999Z,12.98
2022-12-25T09:46:04.269Z,12.94
2022-12-25T09:48:35.572Z,12.95
2022-12-25T09:51:10.125Z,13.01
2022-12-25T09:53:40.463Z,12.96
2022-12-25T09:56:10.675Z,12.88
2022-12-25T09:58:37.480Z,12.78
2022-12-25T10:01:28.936Z,12.68
2022-12-25T10:04:26.956Z,12.56
2022-12-25T10:07:23.695Z,12.52
2022-12-25T10:10:05.774Z,12.50
2022-12-25T10:12:32.554Z,12.45
2022-12-25T10:14:59.345Z,12.45
2022-12-25T10:17:31.004Z,12.48
2022-12-25T10:20:13.228Z,12.47
2022-12-25T10:22:44.926Z,12.48
2022-12-25T10:25:17.843Z,12.51
2022-12-25T10:27:45.393Z,12.49
2022-12-25T10:30:18.564Z,12.42
2022-12-25T10:32:46.574Z,12.43
2022-12-25T10:35:15.422Z,12.56
2022-12-25T10:37:44.504Z,12.72
2022-12-25T10:40:27.438Z,12.79
2022-12-25T10:43:04.459Z,12.84
2022-12-25T10:45:31.371Z,12.89
2022-12-25T10:48:07.446Z,12.90
2022-12-25T10:50:42.560Z,12.88
2022-12-25T10:53:18.643Z,12.76
2022-12-25T10:56:02.254Z,12.56
2022-12-25T10:58:30.564Z,12.49
2022-12-25T11:01:03.017Z,12.44
2022-12-25T11:03:35.956Z,12.43
2022-12-25T11:06:03.465Z,12.47
2022-12-25T11:08:33.111Z,12.54
2022-12-25T11:11:06.396Z,12.65
2022-12-25T11:13:39.277Z,12.74
2022-12-25T11:16:10.643Z,12.91
2022-12-25T11:18:46.520Z,13.03
2022-12-25T11:21:19.015Z,13.16
2022-12-25T11:23:48.827Z,13.38
2022-12-25T11:26:17.835Z,13.56
2022-12-25T11:28:46.274Z,13.78
2022-12-25T11:31:15.944Z,14.00
2022-12-25T11:33:46.931Z,14.12
2022-12-25T11:36:21.613Z,14.26
2022-12-25T11:38:48.391Z,14.40
2022-12-25T11:41:20.755Z,14.40
2022-12-25T11:43:55.557Z,14.41
2022-12-25T11:49:25.900Z,14.67
2022-12-25T11:51:57.151Z,14.77
2022-12-25T11:54:32.453Z,14.74
2022-12-25T11:57:03.436Z,14.76
2022-12-25T11:59:38.633Z,14.84
2022-12-25T12:02:24.259Z,14.87
2022-12-25T12:05:06.660Z,14.91
2022-12-25T12:07:35.448Z,15.04
2022-12-25T12:10:16.675Z,15.04
2022-12-25T12:12:58.642Z,15.07
2022-12-25T12:15:33.557Z,15.20
2022-12-25T12:18:10.170Z,15.31
2022-12-25T12:20:37.475Z,15.51
2022-12-25T12:23:15.215Z,15.47
2022-12-25T12:25:45.458Z,15.39
2022-12-25T12:28:20.913Z,15.41
2022-12-25T12:30:58.671Z,15.43
2022-12-25T12:33:29.630Z,15.45
2022-12-25T12:35:57.092Z,15.65
2022-12-25T12:38:24.942Z,15.73
2022-12-25T12:40:51.650Z,15.68
2022-12-25T12:43:26.212Z,15.66
2022-12-25T12:46:00.999Z,15.57
2022-12-25T12:48:37.235Z,15.51
2022-12-25T12:51:07.367Z,15.49
2022-12-25T12:53:35.124Z,15.50
2022-12-25T12:56:11.976Z,15.56
2022-12-25T12:58:45.170Z,15.48
2022-12-25T13:01:21.466Z,15.38
2022-12-25T13:04:03.543Z,15.26
2022-12-25T13:06:41.487Z,15.24
2022-12-25T13:09:11.690Z,15.27
2022-12-25T13:11:41.629Z,15.27
2022-12-25T13:14:19.245Z,15.23
2022-12-25T13:16:48.951Z,15.28
2022-12-25T13:19:19.404Z,15.40
2022-12-25T13:22:03.354Z,15.52
2022-12-25T13:24:32.820Z,15.50
2022-12-25T13:27:00.715Z,15.47
2022-12-25T13:29:38.069Z,15.26
2022-12-25T13:32:07.493Z,14.81
2022-12-25T13:34:40.505Z,14.27
2022-12-25T13:37:10.196Z,13.70
2022-12-25T13:39:44.625Z,13.11
2022-12-25T13:42:16.818Z,12.56
2022-12-25T13:44:47.433Z,11.97
2022-12-25T13:47:19.667Z,11.50
2022-12-25T13:49:47.413Z,11.19
2022-12-25T13:52:18.872Z,10.83
2022-12-25T13:54:55.799Z,10.51
2022-12-25T13:57:28.121Z,10.21
2022-12-25T13:59:55.561Z,9.97
2022-12-25T14:02:28.833Z,9.70
2022-12-25T14:04:55.930Z,9.47
2022-12-25T14:07:24.984Z,9.27
2022-12-25T14:09:59.734Z,9.09
2022-12-25T14:12:29.188Z,8.96
2022-12-25T14:14:58.264Z,8.80
2022-12-25T14:17:25.928Z,8.67
2022-12-25T14:20:05.626Z,8.54
2022-12-25T14:22:36.036Z,8.38
2022-12-25T14:25:02.845Z,8.20
2022-12-25T14:27:31.015Z,7.94
2022-12-25T14:30:00.594Z,7.64
2022-12-25T14:32:31.892Z,7.37
2022-12-25T14:35:03.734Z,7.17
2022-12-25T14:37:32.872Z,6.95
2022-12-25T14:40:06.570Z,6.75
2022-12-25T14:42:35.263Z,6.51
2022-12-25T14:45:04.027Z,6.29
2022-12-25T14:47:32.528Z,6.13
2022-12-25T14:49:59.995Z,5.96
2022-12-25T14:52:30.562Z,5.77
2022-12-25T14:55:02.985Z,5.60
2022-12-25T14:57:33.899Z,5.39
2022-12-25T15:00:06.704Z,5.21
2022-12-25T15:02:40.831Z,5.01
2022-12-25T15:05:25.137Z,4.76
2022-12-25T15:08:04.468Z,4.53
2022-12-25T15:10:59.738Z,4.31
2022-12-25T15:13:18.918Z,4.13
2022-12-25T15:15:53.557Z,4.01
2022-12-25T15:18:24.559Z,3.85
2022-12-25T15:20:52.977Z,3.67
2022-12-25T15:23:20.899Z,3.52
2022-12-25T15:25:48.644Z,3.42
2022-12-25T15:28:15.499Z,3.31
2022-12-25T15:30:42.473Z,3.21
2022-12-25T15:33:14.484Z,3.16
2022-12-25T15:35:44.143Z,3.11
2022-12-25T15:38:12.336Z,3.05
2022-12-25T15:40:40.128Z,2.95
2022-12-25T15:43:14.531Z,2.81
2022-12-25T15:45:53.665Z,2.66
2022-12-25T15:48:20.448Z,2.60
2022-12-25T15:50:47.403Z,2.59
2022-12-25T15:53:14.229Z,2.62
2022-12-25T15:55:41.277Z,2.61
2022-12-25T15:58:13.176Z,2.52
2022-12-25T16:00:39.899Z,2.45
2022-12-25T16:03:06.799Z,2.41
2022-12-25T16:05:33.731Z,2.34
2022-12-25T16:08:00.504Z,2.35
2022-12-25T16:10:27.390Z,2.42
2022-12-25T16:12:54.134Z,2.41
2022-12-25T16:15:20.900Z,2.36
2022-12-25T16:17:47.698Z,2.26
2022-12-25T16:20:15.036Z,2.17
2022-12-25T16:22:41.766Z,2.08
2022-12-25T16:25:14.991Z,2.07
2022-12-25T16:27:41.806Z,2.06
2022-12-25T16:30:09.665Z,2.11
2022-12-25T16:32:36.554Z,2.10
2022-12-25T16:35:03.593Z,2.08
2022-12-25T16:37:30.567Z,2.04
2022-12-25T16:39:57.431Z,2.04
2022-12-25T16:42:24.274Z,2.06
2022-12-25T16:44:51.142Z,2.08
2022-12-25T16:47:17.931Z,2.11
2022-12-25T16:49:44.728Z,2.12
2022-12-25T16:52:11.528Z,2.16
2022-12-25T16:54:38.200Z,2.20
2022-12-25T16:57:04.966Z,2.24
2022-12-25T16:59:33.017Z,2.27
2022-12-25T17:01:59.818Z,2.30
2022-12-25T17:04:27.884Z,2.35
2022-12-25T17:06:54.640Z,2.38
2022-12-25T17:09:21.499Z,2.35
2022-12-25T17:11:48.301Z,2.32
2022-12-25T17:14:16.231Z,2.27
2022-12-25T17:16:43.039Z,2.30
2022-12-25T17:19:18.373Z,2.34
2022-12-25T17:21:45.841Z,2.38
2022-12-25T17:24:12.886Z,2.43
2022-12-25T17:26:42.092Z,2.49
2022-12-25T17:29:08.853Z,2.54
2022-12-25T17:31:36.118Z,2.57
2022-12-25T17:34:04.234Z,2.58
2022-12-25T17:36:31.906Z,2.58
2022-12-25T17:39:00.929Z,2.56
2022-12-25T17:41:28.023Z,2.54
2022-12-25T17:43:55.048Z,2.54
2022-12-25T17:46:24.984Z,2.56
2022-12-25T17:48:54.304Z,2.57
2022-12-25T17:51:23.377Z,2.59
2022-12-25T17:53:55.481Z,2.57
2022-12-25T17:56:39.297Z,2.51
2022-12-25T17:59:08.447Z,2.44
2022-12-25T18:01:53.039Z,2.39
2022-12-25T18:04:35.704Z,2.38
2022-12-25T18:07:03.424Z,2.40
2022-12-25T18:09:32.201Z,2.44
2022-12-25T18:12:00.011Z,2.46
2022-12-25T18:14:26.918Z,2.50
2022-12-25T18:16:53.943Z,2.51
2022-12-25T18:19:20.801Z,2.59
2022-12-25T18:21:47.688Z,2.61
2022-12-25T18:24:15.768Z,2.63
2022-12-25T18:26:42.583Z,2.68
2022-12-25T18:29:26.077Z,2.73
2022-12-25T18:31:52.869Z,2.80
2022-12-25T18:34:36.771Z,2.83
2022-12-25T18:37:03.782Z,2.86
2022-12-25T18:39:32.011Z,2.87
2022-12-25T18:42:14.984Z,2.87
2022-12-25T18:44:41.848Z,2.86
2022-12-25T18:47:08.620Z,2.90
2022-12-25T18:49:36.892Z,2.93
2022-12-25T18:52:48.824Z,2.99
2022-12-25T18:54:52.479Z,3.06
2022-12-25T18:57:19.530Z,3.11
2022-12-25T18:59:47.471Z,3.14
2022-12-25T19:02:15.359Z,3.16
2022-12-25T19:04:50.689Z,3.15
2022-12-25T19:07:17.451Z,3.16
2022-12-25T19:09:44.793Z,3.17
2022-12-25T19:12:27.254Z,3.21
2022-12-25T19:14:54.025Z,3.27
2022-12-25T19:17:22.552Z,3.32
2022-12-25T19:19:51.055Z,3.37
2022-12-25T19:22:17.792Z,3.40
2022-12-25T19:25:00.153Z,3.40
2022-12-25T19:27:27.212Z,3.43
2022-12-25T19:29:54.714Z,3.46
2022-12-25T19:32:24.236Z,3.50
2022-12-25T19:35:07.072Z,3.54
2022-12-25T19:37:34.824Z,3.57
2022-12-25T19:40:01.874Z,3.57
2022-12-25T19:42:28.630Z,3.56
2022-12-25T19:44:55.941Z,3.55
2022-12-25T19:47:22.830Z,3.56
2022-12-25T19:49:53.227Z,3.56
2022-12-25T19:52:20.596Z,3.59
2022-12-25T19:54:51.663Z,3.62
2022-12-25T19:57:18.699Z,3.59
2022-12-25T19:59:45.426Z,3.61
2022-12-25T20:02:12.653Z,3.65
2022-12-25T20:04:39.535Z,3.68
2022-12-25T20:07:06.470Z,3.69
2022-12-25T20:09:33.313Z,3.72
2022-12-25T20:12:00.110Z,3.75
2022-12-25T20:14:26.852Z,3.79
2022-12-25T20:16:53.969Z,3.82
2022-12-25T20:19:21.541Z,3.84
2022-12-25T20:21:48.530Z,3.85
2022-12-25T20:24:16.086Z,3.84
2022-12-25T20:26:46.442Z,3.84
2022-12-25T20:29:15.072Z,3.84
2022-12-25T20:31:42.134Z,3.83
2022-12-25T20:34:12.063Z,3.86
2022-12-25T20:36:39.278Z,3.88
2022-12-25T20:39:09.826Z,3.90
2022-12-25T20:41:38.049Z,3.91
2022-12-25T20:44:06.589Z,3.91
2022-12-25T20:46:33.666Z,3.90
2022-12-25T20:49:04.317Z,3.93
2022-12-25T20:51:31.064Z,3.95
2022-12-25T20:53:58.140Z,3.96
2022-12-25T20:56:26.433Z,3.98
2022-12-25T20:58:55.174Z,4.00
2022-12-25T21:01:22.588Z,3.99
2022-12-25T21:03:51.192Z,3.98
2022-12-25T21:06:18.027Z,3.99
2022-12-25T21:08:44.816Z,4.04
2022-12-25T21:11:13.088Z,4.09
2022-12-25T21:13:42.435Z,4.14
2022-12-25T21:16:13.899Z,4.17
2022-12-25T21:18:40.745Z,4.20
2022-12-25T21:21:10.570Z,4.22
2022-12-25T21:23:39.180Z,4.24
2022-12-25T21:26:19.470Z,4.21
2022-12-25T21:28:48.300Z,4.18
2022-12-25T21:31:15.244Z,4.16
2022-12-25T21:33:57.599Z,4.19
2022-12-25T21:36:34.080Z,4.26
2022-12-25T21:39:04.128Z,4.32
2022-12-25T21:41:32.713Z,4.37
2022-12-25T21:44:00.118Z,4.43
2022-12-25T21:46:27.840Z,4.46
2022-12-25T21:48:55.124Z,4.49
2022-12-25T21:51:40.326Z,4.51
2022-12-25T21:54:07.493Z,4.52
2022-12-25T21:56:43.039Z,4.53
2022-12-25T21:59:12.584Z,4.54
2022-12-25T22:01:39.410Z,4.52
2022-12-25T22:04:08.342Z,4.50
2022-12-25T22:06:50.778Z,4.45
2022-12-25T22:09:18.415Z,4.41
2022-12-25T22:12:00.530Z,4.38
2022-12-25T22:14:52.715Z,4.35
2022-12-25T22:17:40.944Z,4.34
2022-12-25T22:20:10.835Z,4.33
2022-12-25T22:22:37.777Z,4.34
2022-12-25T22:25:05.732Z,4.35
2022-12-25T22:27:35.812Z,4.37
2022-12-25T22:30:02.577Z,4.35
2022-12-25T22:32:29.417Z,4.32
2022-12-25T22:34:56.210Z,4.27
2022-12-25T22:37:27.184Z,4.23
2022-12-25T22:39:53.911Z,4.21
2022-12-25T22:42:20.989Z,4.20
2022-12-25T22:44:47.787Z,4.22
2022-12-25T22:47:15.368Z,4.25
2022-12-25T22:49:42.137Z,4.29
2022-12-25T22:52:09.901Z,4.33
2022-12-25T22:54:37.256Z,4.33
2022-12-25T22:57:04.601Z,4.35
2022-12-25T22:59:32.909Z,4.36
2022-12-25T23:02:00.751Z,4.38
2022-12-25T23:04:28.326Z,4.40
2022-12-25T23:06:55.229Z,4.41
2022-12-25T23:09:27.501Z,4.42
2022-12-25T23:11:55.880Z,4.41
2022-12-25T23:14:39.064Z,4.41
2022-12-25T23:17:28.631Z,4.41
2022-12-25T23:20:11.343Z,4.42
2022-12-25T23:22:53.726Z,4.44
2022-12-25T23:25:35.946Z,4.47
2022-12-25T23:28:02.640Z,4.52
2022-12-25T23:30:29.313Z,4.55
2022-12-25T23:32:56.006Z,4.57
2022-12-25T23:35:22.704Z,4.60
2022-12-25T23:37:53.051Z,4.63
2022-12-25T23:40:20.040Z,4.61
2022-12-25T23:42:46.904Z,4.58
2022-12-25T23:45:13.881Z,4.55
2022-12-25T23:47:40.628Z,4.51
2022-12-25T23:50:07.592Z,4.54
2022-12-25T23:52:34.290Z,4.54
2022-12-25T23:55:01.122Z,4.53
2022-12-25T23:57:28.894Z,4.50
2022-12-25T23:59:55.604Z,4.48
